createdAt,value
2022-11-29T00:00:07.901Z,19.91
2022-11-29T00:01:07.912Z,19.92
2022-11-29T00:02:08.044Z,19.95
2022-11-29T00:03:08.111Z,19.98
2022-11-29T00:04:07.946Z,19.99
2022-11-29T00:05:07.956Z,20.01
2022-11-29T00:06:07.974Z,20.03
2022-11-29T00:07:07.986Z,20.03
2022-11-29T00:08:08.021Z,20.03
2022-11-29T00:09:08.038Z,20.03
2022-11-29T00:10:08.024Z,20.05
2022-11-29T00:11:08.041Z,20.05
2022-11-29T00:12:08.045Z,20.06
2022-11-29T00:13:08.054Z,20.08
2022-11-29T00:14:08.096Z,20.08
2022-11-29T00:15:08.091Z,20.08
2022-11-29T00:16:08.297Z,20.08
2022-11-29T00:17:08.109Z,20.06
2022-11-29T00:18:08.116Z,20.05
2022-11-29T00:19:08.152Z,20.05
2022-11-29T00:20:08.141Z,20.05
2022-11-29T00:21:08.148Z,20.03
2022-11-29T00:22:08.165Z,20.05
2022-11-29T00:23:08.176Z,20.03
2022-11-29T00:24:08.329Z,20.02
2022-11-29T00:25:08.196Z,20.03
2022-11-29T00:26:08.206Z,20.02
2022-11-29T00:27:08.217Z,20.03
2022-11-29T00:28:08.225Z,20.01
2022-11-29T00:29:08.237Z,20.01
2022-11-29T00:30:08.279Z,20.02
2022-11-29T00:31:08.300Z,20.03
2022-11-29T00:32:08.269Z,20.03
2022-11-29T00:33:08.277Z,20.02
2022-11-29T00:34:08.281Z,20.02
2022-11-29T00:35:09.933Z,20.03
2022-11-29T00:36:08.301Z,20.05
2022-11-29T00:37:08.311Z,20.05
2022-11-29T00:38:08.314Z,20.05
2022-11-29T00:39:08.325Z,20.05
2022-11-29T00:40:08.326Z,20.03
2022-11-29T00:41:08.366Z,20.05
2022-11-29T00:42:08.338Z,20.05
2022-11-29T00:43:08.355Z,20.05
2022-11-29T00:44:08.361Z,20.03
2022-11-29T00:45:08.375Z,20.05
2022-11-29T00:46:08.444Z,20.03
2022-11-29T00:47:08.390Z,20.03
2022-11-29T00:48:08.390Z,20.03
2022-11-29T00:49:08.397Z,20.05
2022-11-29T00:50:08.414Z,20.02
2022-11-29T00:51:08.438Z,20.02
2022-11-29T00:52:08.422Z,20.02
2022-11-29T00:53:08.434Z,20.01
2022-11-29T00:54:08.436Z,20.02
2022-11-29T00:55:08.448Z,20.01
2022-11-29T00:56:08.492Z,20.02
2022-11-29T00:57:08.467Z,20.03
2022-11-29T00:58:08.483Z,20.03
2022-11-29T00:59:08.491Z,20.05
2022-11-29T01:00:08.494Z,20.05
2022-11-29T01:01:08.581Z,20.05
2022-11-29T01:02:08.558Z,20.03
2022-11-29T01:03:08.528Z,20.03
2022-11-29T01:04:08.556Z,20.05
2022-11-29T01:05:08.561Z,20.03
2022-11-29T01:06:08.578Z,20.05
2022-11-29T01:07:08.610Z,20.05
2022-11-29T01:08:08.595Z,20.05
2022-11-29T01:09:08.615Z,20.06
2022-11-29T01:10:08.627Z,20.03
2022-11-29T01:11:08.631Z,20.06
2022-11-29T01:12:08.672Z,20.05
2022-11-29T01:13:08.667Z,20.05
2022-11-29T01:14:08.683Z,20.06
2022-11-29T01:15:08.693Z,20.05
2022-11-29T01:16:08.707Z,20.06
2022-11-29T01:17:08.777Z,20.05
2022-11-29T01:18:08.743Z,20.03
2022-11-29T01:19:08.761Z,20.05
2022-11-29T01:20:08.767Z,20.03
2022-11-29T01:21:08.784Z,20.05
2022-11-29T01:22:08.818Z,20.03
2022-11-29T01:23:08.836Z,20.03
2022-11-29T01:24:08.828Z,20.05
2022-11-29T01:25:08.840Z,20.03
2022-11-29T01:26:08.848Z,20.05
2022-11-29T01:27:08.868Z,20.03
2022-11-29T01:28:08.900Z,20.03
2022-11-29T01:29:08.893Z,20.05
2022-11-29T01:30:08.895Z,20.03
2022-11-29T01:31:09.031Z,20.05
2022-11-29T01:32:08.932Z,20.03
2022-11-29T01:33:08.972Z,20.03
2022-11-29T01:34:08.988Z,20.05
2022-11-29T01:35:08.985Z,20.05
2022-11-29T01:36:09.004Z,20.05
2022-11-29T01:37:09.017Z,20.06
2022-11-29T01:38:09.036Z,20.03
2022-11-29T01:39:09.083Z,20.03
2022-11-29T01:40:09.077Z,20.02
2022-11-29T01:41:09.088Z,20.01
2022-11-29T01:42:09.105Z,20.01
2022-11-29T01:43:09.113Z,20.01
2022-11-29T01:44:09.161Z,19.99
2022-11-29T01:45:09.149Z,19.99
2022-11-29T01:46:09.162Z,19.98
2022-11-29T01:47:09.177Z,19.98
2022-11-29T01:48:09.198Z,19.98
2022-11-29T01:49:09.237Z,19.98
2022-11-29T01:50:09.231Z,19.96
2022-11-29T01:51:09.245Z,19.96
2022-11-29T01:52:09.262Z,19.96
2022-11-29T01:53:09.274Z,19.96
2022-11-29T01:54:09.309Z,19.98
2022-11-29T01:55:09.301Z,19.96
2022-11-29T01:56:09.401Z,19.95
2022-11-29T01:57:09.321Z,19.95
2022-11-29T01:58:09.333Z,19.95
2022-11-29T01:59:09.375Z,19.96
2022-11-29T02:00:09.357Z,19.98
2022-11-29T02:01:09.439Z,19.98
2022-11-29T02:02:09.418Z,19.98
2022-11-29T02:03:09.395Z,19.98
2022-11-29T02:04:09.565Z,19.96
2022-11-29T02:05:09.415Z,19.98
2022-11-29T02:06:09.429Z,19.98
2022-11-29T02:07:09.443Z,19.98
2022-11-29T02:08:09.441Z,19.99
2022-11-29T02:09:09.458Z,19.99
2022-11-29T02:10:09.495Z,19.99
2022-11-29T02:11:09.474Z,19.99
2022-11-29T02:12:09.477Z,19.99
2022-11-29T02:13:09.488Z,19.99
2022-11-29T02:14:09.498Z,20.01
2022-11-29T02:15:09.530Z,20.02
2022-11-29T02:16:09.549Z,20.01
2022-11-29T02:17:09.530Z,20.01
2022-11-29T02:18:09.542Z,20.01
2022-11-29T02:19:09.554Z,20.02
2022-11-29T02:20:09.582Z,20.01
2022-11-29T02:21:09.570Z,20.01
2022-11-29T02:22:09.582Z,20.02
2022-11-29T02:23:09.712Z,20.02
2022-11-29T02:24:09.606Z,20.02
2022-11-29T02:25:09.662Z,20.01
2022-11-29T02:26:09.626Z,20.01
2022-11-29T02:27:09.643Z,20.02
2022-11-29T02:28:09.655Z,20.01
2022-11-29T02:29:09.666Z,20.01
2022-11-29T02:30:09.680Z,20.01
2022-11-29T02:31:09.774Z,20.01
2022-11-29T02:32:09.678Z,20.01
2022-11-29T02:33:09.687Z,20.01
2022-11-29T02:34:09.692Z,19.99
2022-11-29T02:35:09.698Z,20.01
2022-11-29T02:36:09.743Z,20.01
2022-11-29T02:37:11.719Z,20.01
2022-11-29T02:38:09.731Z,20.02
2022-11-29T02:39:09.743Z,20.02
2022-11-29T02:40:09.744Z,20.02
2022-11-29T02:41:09.790Z,20.02
2022-11-29T02:42:09.775Z,20.02
2022-11-29T02:43:09.779Z,20.02
2022-11-29T02:44:09.788Z,20.02
2022-11-29T02:45:09.800Z,20.01
2022-11-29T02:46:09.841Z,19.99
2022-11-29T02:47:09.819Z,20.01
2022-11-29T02:48:09.831Z,20.02
2022-11-29T02:49:09.835Z,20.02
2022-11-29T02:50:09.855Z,20.01
2022-11-29T02:51:09.883Z,20.01
2022-11-29T02:52:09.868Z,20.02
2022-11-29T02:53:09.874Z,20.02
2022-11-29T02:54:09.891Z,20.02
2022-11-29T02:55:09.901Z,20.03
2022-11-29T02:56:09.927Z,20.02
2022-11-29T02:57:09.952Z,20.02
2022-11-29T02:58:09.927Z,20.02
2022-11-29T02:59:09.935Z,20.03
2022-11-29T03:00:09.939Z,20.02
2022-11-29T03:01:10.006Z,20.03
2022-11-29T03:02:10.014Z,20.03
2022-11-29T03:03:10.000Z,20.03
2022-11-29T03:04:09.972Z,20.03
2022-11-29T03:05:09.988Z,20.02
2022-11-29T03:06:10.004Z,20.03
2022-11-29T03:07:10.022Z,20.02
2022-11-29T03:08:10.056Z,20.02
2022-11-29T03:09:10.032Z,20.02
2022-11-29T03:10:10.055Z,20.01
2022-11-29T03:11:10.063Z,20.02
2022-11-29T03:12:10.080Z,20.03
2022-11-29T03:13:10.120Z,20.03
2022-11-29T03:14:10.109Z,20.03
2022-11-29T03:15:10.113Z,20.03
2022-11-29T03:16:10.170Z,20.03
2022-11-29T03:17:10.139Z,20.02
2022-11-29T03:18:10.292Z,20.03
2022-11-29T03:19:10.157Z,20.05
2022-11-29T03:20:10.161Z,20.05
2022-11-29T03:21:10.176Z,20.05
2022-11-29T03:22:10.196Z,20.06
2022-11-29T03:23:10.203Z,20.06
2022-11-29T03:24:10.253Z,20.08
2022-11-29T03:25:10.220Z,20.08
2022-11-29T03:26:10.233Z,20.08
2022-11-29T03:27:10.237Z,20.06
2022-11-29T03:28:10.249Z,20.05
2022-11-29T03:29:10.256Z,20.08
2022-11-29T03:30:10.301Z,20.08
2022-11-29T03:31:10.323Z,20.06
2022-11-29T03:32:10.289Z,20.06
2022-11-29T03:33:10.301Z,20.05
2022-11-29T03:34:10.302Z,20.06
2022-11-29T03:35:10.349Z,20.06
2022-11-29T03:36:10.328Z,20.06
2022-11-29T03:37:10.338Z,20.06
2022-11-29T03:38:10.345Z,20.08
2022-11-29T03:39:10.362Z,20.06
2022-11-29T03:40:10.417Z,20.08
2022-11-29T03:41:10.393Z,20.08
2022-11-29T03:42:10.410Z,20.06
2022-11-29T03:43:10.414Z,20.06
2022-11-29T03:44:10.438Z,20.06
2022-11-29T03:45:10.474Z,20.05
2022-11-29T03:46:10.508Z,20.05
2022-11-29T03:47:10.482Z,20.05
2022-11-29T03:48:10.497Z,20.03
2022-11-29T03:49:10.525Z,20.02
2022-11-29T03:50:10.561Z,20.02
2022-11-29T03:51:10.550Z,20.01
2022-11-29T03:52:10.567Z,20.02
2022-11-29T03:53:10.591Z,19.99
2022-11-29T03:54:10.602Z,19.99
2022-11-29T03:55:10.637Z,19.99
2022-11-29T03:56:10.663Z,19.99
2022-11-29T03:57:10.659Z,19.99
2022-11-29T03:58:10.669Z,19.99
2022-11-29T03:59:10.678Z,19.99
2022-11-29T04:00:10.705Z,19.96
2022-11-29T04:01:10.769Z,19.96
2022-11-29T04:02:10.722Z,19.96
2022-11-29T04:03:10.735Z,19.98
2022-11-29T04:04:10.748Z,19.96
2022-11-29T04:05:10.766Z,19.96
2022-11-29T04:06:10.785Z,19.96
2022-11-29T04:07:10.818Z,19.95
2022-11-29T04:08:10.795Z,19.96
2022-11-29T04:09:10.803Z,19.95
2022-11-29T04:10:10.823Z,19.96
2022-11-29T04:11:10.839Z,19.95
2022-11-29T04:12:10.870Z,19.96
2022-11-29T04:13:10.862Z,19.96
2022-11-29T04:14:10.871Z,19.96
2022-11-29T04:15:15.325Z,19.96
2022-11-29T04:16:10.931Z,19.95
2022-11-29T04:17:10.931Z,19.96
2022-11-29T04:18:10.918Z,19.96
2022-11-29T04:19:10.939Z,19.98
2022-11-29T04:20:10.939Z,19.99
2022-11-29T04:21:10.951Z,20.01
2022-11-29T04:22:11.029Z,19.99
2022-11-29T04:23:10.999Z,19.99
2022-11-29T04:24:10.990Z,20.02
2022-11-29T04:25:10.999Z,20.02
2022-11-29T04:26:11.018Z,20.02
2022-11-29T04:27:11.039Z,20.02
2022-11-29T04:28:11.039Z,20.02
2022-11-29T04:29:11.049Z,20.02
2022-11-29T04:30:11.058Z,20.03
2022-11-29T04:31:11.114Z,20.02
2022-11-29T04:32:11.108Z,20.02
2022-11-29T04:33:11.087Z,20.03
2022-11-29T04:34:11.096Z,20.02
2022-11-29T04:35:11.116Z,20.03
2022-11-29T04:36:11.139Z,20.03
2022-11-29T04:37:11.179Z,20.03
2022-11-29T04:38:11.148Z,20.03
2022-11-29T04:39:11.153Z,20.03
2022-11-29T04:40:11.174Z,20.05
2022-11-29T04:41:11.189Z,20.03
2022-11-29T04:42:11.215Z,20.05
2022-11-29T04:43:11.208Z,20.05
2022-11-29T04:44:11.205Z,20.06
2022-11-29T04:45:11.214Z,20.06
2022-11-29T04:46:11.321Z,20.06
2022-11-29T04:47:11.280Z,20.06
2022-11-29T04:48:11.260Z,20.06
2022-11-29T04:49:11.272Z,20.06
2022-11-29T04:50:11.280Z,20.06
2022-11-29T04:51:11.293Z,20.06
2022-11-29T04:52:11.332Z,20.06
2022-11-29T04:53:11.316Z,20.06
2022-11-29T04:54:11.331Z,20.06
2022-11-29T04:55:11.344Z,20.10
2022-11-29T04:56:11.363Z,20.10
2022-11-29T04:57:11.403Z,20.11
2022-11-29T04:58:11.390Z,20.10
2022-11-29T04:59:11.404Z,20.11
2022-11-29T05:00:11.416Z,20.11
2022-11-29T05:01:11.498Z,20.11
2022-11-29T05:02:11.473Z,20.08
2022-11-29T05:03:11.460Z,20.06
2022-11-29T05:04:11.472Z,20.06
2022-11-29T05:05:11.489Z,20.05
2022-11-29T05:06:11.501Z,20.05
2022-11-29T05:07:11.533Z,20.06
2022-11-29T05:08:11.553Z,20.08
2022-11-29T05:09:11.545Z,20.08
2022-11-29T05:10:11.564Z,20.10
2022-11-29T05:11:11.577Z,20.08
2022-11-29T05:12:11.585Z,20.13
2022-11-29T05:13:11.628Z,20.10
2022-11-29T05:14:11.613Z,20.10
2022-11-29T05:15:11.617Z,20.10
2022-11-29T05:16:11.741Z,20.11
2022-11-29T05:17:11.641Z,20.11
2022-11-29T05:18:11.820Z,20.11
2022-11-29T05:19:11.675Z,20.11
2022-11-29T05:20:11.689Z,20.08
2022-11-29T05:21:11.702Z,20.08
2022-11-29T05:22:11.714Z,20.06
2022-11-29T05:23:11.733Z,20.05
2022-11-29T05:24:11.761Z,20.05
2022-11-29T05:25:11.745Z,20.05
2022-11-29T05:26:11.773Z,20.02
2022-11-29T05:27:11.781Z,20.02
2022-11-29T05:28:11.797Z,20.01
2022-11-29T05:29:11.841Z,20.02
2022-11-29T05:30:11.828Z,20.01
2022-11-29T05:31:11.870Z,19.99
2022-11-29T05:32:11.852Z,19.98
2022-11-29T05:33:11.861Z,19.98
2022-11-29T05:34:11.914Z,19.96
2022-11-29T05:35:11.897Z,19.96
2022-11-29T05:36:11.919Z,19.95
2022-11-29T05:37:11.929Z,19.92
2022-11-29T05:38:11.947Z,19.94
2022-11-29T05:39:12.110Z,19.92
2022-11-29T05:40:11.977Z,19.92
2022-11-29T05:41:11.986Z,19.92
2022-11-29T05:42:12.006Z,19.92
2022-11-29T05:43:12.014Z,19.91
2022-11-29T05:44:12.030Z,19.91
2022-11-29T05:45:12.070Z,19.91
2022-11-29T05:46:12.069Z,19.88
2022-11-29T05:47:12.077Z,19.91
2022-11-29T05:48:12.078Z,19.88
2022-11-29T05:49:12.091Z,19.87
2022-11-29T05:50:12.150Z,19.88
2022-11-29T05:51:12.128Z,19.88
2022-11-29T05:52:12.138Z,19.88
2022-11-29T05:53:12.155Z,19.88
2022-11-29T05:54:12.174Z,19.88
2022-11-29T05:55:12.203Z,19.88
2022-11-29T05:56:12.223Z,19.88
2022-11-29T05:57:12.212Z,19.88
2022-11-29T05:58:12.223Z,19.88
2022-11-29T05:59:12.238Z,19.91
2022-11-29T06:00:12.245Z,19.88
2022-11-29T06:01:12.279Z,19.88
2022-11-29T06:02:12.326Z,19.87
2022-11-29T06:03:12.354Z,19.88
2022-11-29T06:04:14.940Z,19.87
2022-11-29T06:05:12.293Z,19.87
2022-11-29T06:06:12.315Z,19.87
2022-11-29T06:07:12.299Z,19.86
2022-11-29T06:08:12.316Z,19.86
2022-11-29T06:09:12.315Z,19.86
2022-11-29T06:10:12.319Z,19.87
2022-11-29T06:11:12.393Z,19.86
2022-11-29T06:12:14.852Z,19.86
2022-11-29T06:13:12.347Z,19.86
2022-11-29T06:14:12.339Z,19.84
2022-11-29T06:15:12.375Z,19.84
2022-11-29T06:16:12.436Z,19.84
2022-11-29T06:17:12.375Z,19.86
2022-11-29T06:18:12.379Z,19.84
2022-11-29T06:19:12.391Z,19.86
2022-11-29T06:20:12.395Z,19.86
2022-11-29T06:21:12.418Z,19.84
2022-11-29T06:22:12.449Z,19.83
2022-11-29T06:23:12.419Z,19.84
2022-11-29T06:24:12.440Z,19.83
2022-11-29T06:25:12.441Z,19.83
2022-11-29T06:26:12.447Z,19.83
2022-11-29T06:27:12.457Z,19.83
2022-11-29T06:28:12.500Z,19.81
2022-11-29T06:29:12.476Z,19.81
2022-11-29T06:30:12.487Z,19.83
2022-11-29T06:31:12.544Z,19.80
2022-11-29T06:32:12.504Z,19.80
2022-11-29T06:33:12.546Z,19.80
2022-11-29T06:34:12.524Z,19.81
2022-11-29T06:35:12.540Z,19.80
2022-11-29T06:36:12.540Z,19.83
2022-11-29T06:37:12.553Z,19.84
2022-11-29T06:38:12.598Z,19.87
2022-11-29T06:39:12.576Z,19.88
2022-11-29T06:40:12.580Z,19.88
2022-11-29T06:41:12.655Z,19.87
2022-11-29T06:42:12.602Z,19.87
2022-11-29T06:43:12.642Z,19.86
2022-11-29T06:44:12.617Z,19.86
2022-11-29T06:45:12.628Z,19.84
2022-11-29T06:46:12.810Z,19.84
2022-11-29T06:47:12.645Z,19.84
2022-11-29T06:48:12.673Z,19.81
2022-11-29T06:49:12.684Z,19.81
2022-11-29T06:50:12.678Z,19.81
2022-11-29T06:51:12.736Z,19.80
2022-11-29T06:52:12.689Z,19.78
2022-11-29T06:53:12.701Z,19.77
2022-11-29T06:54:12.737Z,19.77
2022-11-29T06:55:12.726Z,19.74
2022-11-29T06:56:12.732Z,19.74
2022-11-29T06:57:12.741Z,19.74
2022-11-29T06:58:12.745Z,19.74
2022-11-29T06:59:12.797Z,19.74
2022-11-29T07:00:12.766Z,19.74
2022-11-29T07:01:12.877Z,19.73
2022-11-29T07:02:12.814Z,19.73
2022-11-29T07:03:12.794Z,19.71
2022-11-29T07:04:12.829Z,19.73
2022-11-29T07:05:12.813Z,19.69
2022-11-29T07:06:12.810Z,19.69
2022-11-29T07:07:12.817Z,19.69
2022-11-29T07:08:12.829Z,19.69
2022-11-29T07:09:12.833Z,19.69
2022-11-29T07:10:14.995Z,19.69
2022-11-29T07:11:12.849Z,19.69
2022-11-29T07:12:12.846Z,19.68
2022-11-29T07:13:12.857Z,19.69
2022-11-29T07:14:12.858Z,19.69
2022-11-29T07:15:12.865Z,19.71
2022-11-29T07:16:12.966Z,19.71
2022-11-29T07:17:12.881Z,19.71
2022-11-29T07:18:12.886Z,19.71
2022-11-29T07:19:12.890Z,19.71
2022-11-29T07:20:12.903Z,19.73
2022-11-29T07:21:12.894Z,19.74
2022-11-29T07:22:12.947Z,19.74
2022-11-29T07:23:12.908Z,19.73
2022-11-29T07:24:12.918Z,19.74
2022-11-29T07:25:12.928Z,19.74
2022-11-29T07:26:12.933Z,19.76
2022-11-29T07:27:12.934Z,19.76
2022-11-29T07:28:12.978Z,19.74
2022-11-29T07:29:12.954Z,19.74
2022-11-29T07:30:12.950Z,19.76
2022-11-29T07:31:13.038Z,19.76
2022-11-29T07:32:12.964Z,19.74
2022-11-29T07:33:12.967Z,19.76
2022-11-29T07:34:13.067Z,19.76
2022-11-29T07:35:12.974Z,19.76
2022-11-29T07:36:12.982Z,19.76
2022-11-29T07:37:12.993Z,19.76
2022-11-29T07:38:12.995Z,19.76
2022-11-29T07:39:12.995Z,19.77
2022-11-29T07:40:13.046Z,19.77
2022-11-29T07:41:12.995Z,19.77
2022-11-29T07:42:13.003Z,19.77
2022-11-29T07:43:13.006Z,19.77
2022-11-29T07:44:13.005Z,19.76
2022-11-29T07:45:13.011Z,19.77
2022-11-29T07:46:13.096Z,19.78
2022-11-29T07:47:13.020Z,19.78
2022-11-29T07:48:13.036Z,19.78
2022-11-29T07:49:13.041Z,19.77
2022-11-29T07:50:13.043Z,19.77
2022-11-29T07:51:13.083Z,19.77
2022-11-29T07:52:13.081Z,19.78
2022-11-29T07:53:13.080Z,19.78
2022-11-29T07:54:13.076Z,19.78
2022-11-29T07:55:18.345Z,19.78
2022-11-29T07:56:13.091Z,19.81
2022-11-29T07:57:13.136Z,19.80
2022-11-29T07:58:13.117Z,19.80
2022-11-29T07:59:13.100Z,19.78
2022-11-29T08:00:13.116Z,19.78
2022-11-29T08:01:13.149Z,19.78
2022-11-29T08:02:13.182Z,19.77
2022-11-29T08:03:13.172Z,19.78
2022-11-29T08:04:13.145Z,19.78
2022-11-29T08:05:13.149Z,19.80
2022-11-29T08:06:13.161Z,19.80
2022-11-29T08:07:13.164Z,19.80
2022-11-29T08:08:13.176Z,19.80
2022-11-29T08:09:13.204Z,19.78
2022-11-29T08:10:13.181Z,19.78
2022-11-29T08:11:13.198Z,19.80
2022-11-29T08:12:13.200Z,19.80
2022-11-29T08:13:13.205Z,19.81
2022-11-29T08:14:13.250Z,19.80
2022-11-29T08:15:13.222Z,19.81
2022-11-29T08:16:13.225Z,19.81
2022-11-29T08:17:13.249Z,19.83
2022-11-29T08:18:13.234Z,19.81
2022-11-29T08:19:13.250Z,19.83
2022-11-29T08:20:13.390Z,19.83
2022-11-29T08:21:13.261Z,19.83
2022-11-29T08:22:13.270Z,19.84
2022-11-29T08:23:13.286Z,19.84
2022-11-29T08:24:13.297Z,19.87
2022-11-29T08:25:13.310Z,19.87
2022-11-29T08:26:13.473Z,19.87
2022-11-29T08:27:13.325Z,19.88
2022-11-29T08:28:13.341Z,19.88
2022-11-29T08:29:13.345Z,19.88
2022-11-29T08:30:13.365Z,19.88
2022-11-29T08:31:13.420Z,19.92
2022-11-29T08:32:13.410Z,19.92
2022-11-29T08:33:13.395Z,19.94
2022-11-29T08:34:13.408Z,19.92
2022-11-29T08:35:13.430Z,19.94
2022-11-29T08:36:13.445Z,19.94
2022-11-29T08:37:13.478Z,19.94
2022-11-29T08:38:13.459Z,19.94
2022-11-29T08:39:13.469Z,19.96
2022-11-29T08:40:13.478Z,19.96
2022-11-29T08:41:13.481Z,19.99
2022-11-29T08:42:13.515Z,20.01
2022-11-29T08:43:13.539Z,20.05
2022-11-29T08:44:13.514Z,20.08
2022-11-29T08:45:13.530Z,20.11
2022-11-29T08:46:18.289Z,20.14
2022-11-29T08:47:13.538Z,20.16
2022-11-29T08:48:13.554Z,20.18
2022-11-29T08:49:13.554Z,20.21
2022-11-29T08:50:13.563Z,20.21
2022-11-29T08:51:13.814Z,20.26
2022-11-29T08:52:13.579Z,20.24
2022-11-29T08:53:13.622Z,20.28
2022-11-29T08:54:13.606Z,20.28
2022-11-29T08:55:13.608Z,20.29
2022-11-29T08:56:53.493Z,20.29
2022-11-29T08:57:39.178Z,20.29
2022-11-29T08:58:13.661Z,20.32
2022-11-29T08:59:13.638Z,20.33
2022-11-29T09:00:13.639Z,20.35
2022-11-29T09:01:13.858Z,20.35
2022-11-29T09:02:13.689Z,20.38
2022-11-29T09:03:13.648Z,20.38
2022-11-29T09:04:13.678Z,20.39
2022-11-29T09:05:13.754Z,20.39
2022-11-29T09:06:13.663Z,20.41
2022-11-29T09:07:13.672Z,20.41
2022-11-29T09:08:13.677Z,20.42
2022-11-29T09:09:13.719Z,20.42
2022-11-29T09:10:13.704Z,20.43
2022-11-29T09:11:13.705Z,20.47
2022-11-29T09:12:13.712Z,20.48
2022-11-29T09:13:13.716Z,20.50
2022-11-29T09:14:13.763Z,20.50
2022-11-29T09:15:13.735Z,20.48
2022-11-29T09:16:13.764Z,20.51
2022-11-29T09:17:13.763Z,20.52
2022-11-29T09:18:13.768Z,20.51
2022-11-29T09:19:13.804Z,20.52
2022-11-29T09:20:13.788Z,20.54
2022-11-29T09:21:13.800Z,20.54
2022-11-29T09:22:13.801Z,20.54
2022-11-29T09:23:13.814Z,20.57
2022-11-29T09:24:13.820Z,20.57
2022-11-29T09:25:13.844Z,20.58
2022-11-29T09:26:13.817Z,20.57
2022-11-29T09:27:13.829Z,20.59
2022-11-29T09:28:13.837Z,20.59
2022-11-29T09:29:13.844Z,20.61
2022-11-29T09:30:14.742Z,20.59
2022-11-29T09:31:13.933Z,20.59
2022-11-29T09:32:13.868Z,20.59
2022-11-29T09:33:13.889Z,20.59
2022-11-29T09:34:13.881Z,20.61
2022-11-29T09:35:13.892Z,20.61
2022-11-29T09:36:13.898Z,20.61
2022-11-29T09:37:13.936Z,20.62
2022-11-29T09:38:13.913Z,20.62
2022-11-29T09:39:13.916Z,20.62
2022-11-29T09:40:13.922Z,20.61
2022-11-29T09:41:13.937Z,20.62
2022-11-29T09:42:13.983Z,20.64
2022-11-29T09:43:13.952Z,20.64
2022-11-29T09:44:13.956Z,20.64
2022-11-29T09:45:13.972Z,20.62
2022-11-29T09:46:14.012Z,20.66
2022-11-29T09:47:14.021Z,20.66
2022-11-29T09:48:13.993Z,20.66
2022-11-29T09:49:13.997Z,20.67
2022-11-29T09:50:14.008Z,20.69
2022-11-29T09:51:14.020Z,20.67
2022-11-29T09:52:14.053Z,20.67
2022-11-29T09:53:14.025Z,20.64
2022-11-29T09:54:14.033Z,20.62
2022-11-29T09:55:14.050Z,20.64
2022-11-29T09:56:14.050Z,20.62
2022-11-29T09:57:14.073Z,20.61
2022-11-29T09:58:14.110Z,20.62
2022-11-29T09:59:14.073Z,20.61
2022-11-29T10:00:14.085Z,20.59
2022-11-29T10:01:14.159Z,20.59
2022-11-29T10:02:19.685Z,20.58
2022-11-29T10:03:14.149Z,20.58
2022-11-29T10:04:14.129Z,20.58
2022-11-29T10:05:14.137Z,20.58
2022-11-29T10:06:14.146Z,20.57
2022-11-29T10:07:14.157Z,20.57
2022-11-29T10:08:14.199Z,20.55
2022-11-29T10:09:14.181Z,20.57
2022-11-29T10:10:14.192Z,20.57
2022-11-29T10:11:14.202Z,20.55
2022-11-29T10:12:14.209Z,20.54
2022-11-29T10:13:14.270Z,20.54
2022-11-29T10:14:14.234Z,20.54
2022-11-29T10:15:14.248Z,20.54
2022-11-29T10:16:14.334Z,20.55
2022-11-29T10:17:14.261Z,20.54
2022-11-29T10:18:14.306Z,20.52
2022-11-29T10:19:14.278Z,20.52
2022-11-29T10:20:14.286Z,20.54
2022-11-29T10:21:14.293Z,20.51
2022-11-29T10:22:14.310Z,20.51
2022-11-29T10:23:14.326Z,20.51
2022-11-29T10:24:14.370Z,20.50
2022-11-29T10:25:14.376Z,20.50
2022-11-29T10:26:14.342Z,20.48
2022-11-29T10:27:14.350Z,20.50
2022-11-29T10:28:14.358Z,20.48
2022-11-29T10:29:14.409Z,20.48
2022-11-29T10:30:14.383Z,20.48
2022-11-29T10:31:14.416Z,20.48
2022-11-29T10:32:14.394Z,20.48
2022-11-29T10:33:14.410Z,20.48
2022-11-29T10:34:14.449Z,20.48
2022-11-29T10:35:14.435Z,20.47
2022-11-29T10:36:14.458Z,20.47
2022-11-29T10:37:14.452Z,20.48
2022-11-29T10:38:30.265Z,20.50
2022-11-29T10:39:14.876Z,20.51
2022-11-29T10:40:14.499Z,20.54
2022-11-29T10:41:14.496Z,20.57
2022-11-29T10:42:14.502Z,20.57
2022-11-29T10:43:14.507Z,20.57
2022-11-29T10:44:14.533Z,20.55
2022-11-29T10:45:14.563Z,20.52
2022-11-29T10:46:14.570Z,20.51
2022-11-29T10:47:14.531Z,20.51
2022-11-29T10:48:14.538Z,20.48
2022-11-29T10:49:14.554Z,20.48
2022-11-29T10:50:14.558Z,20.47
2022-11-29T10:51:14.599Z,20.47
2022-11-29T10:52:14.576Z,20.43
2022-11-29T10:53:14.574Z,20.43
2022-11-29T10:54:14.583Z,20.47
2022-11-29T10:55:14.588Z,20.47
2022-11-29T10:56:14.590Z,20.47
2022-11-29T10:57:14.635Z,20.43
2022-11-29T10:58:14.612Z,20.42
2022-11-29T10:59:14.625Z,20.41
2022-11-29T11:00:14.623Z,20.42
2022-11-29T11:01:14.673Z,20.42
2022-11-29T11:02:14.660Z,20.41
2022-11-29T11:03:14.651Z,20.42
2022-11-29T11:04:14.659Z,20.39
2022-11-29T11:05:14.699Z,20.41
2022-11-29T11:06:14.671Z,20.39
2022-11-29T11:07:14.712Z,20.41
2022-11-29T11:08:14.696Z,20.39
2022-11-29T11:09:14.711Z,20.41
2022-11-29T11:10:14.779Z,20.39
2022-11-29T11:11:14.754Z,20.42
2022-11-29T11:12:14.787Z,20.42
2022-11-29T11:13:14.756Z,20.43
2022-11-29T11:14:14.770Z,20.41
2022-11-29T11:15:14.775Z,20.41
2022-11-29T11:16:14.867Z,20.39
2022-11-29T11:17:14.838Z,20.38
2022-11-29T11:18:14.812Z,20.38
2022-11-29T11:19:14.828Z,20.38
2022-11-29T11:20:14.902Z,20.36
2022-11-29T11:21:14.847Z,20.36
2022-11-29T11:22:14.881Z,20.36
2022-11-29T11:23:14.868Z,20.35
2022-11-29T11:24:14.884Z,20.35
2022-11-29T11:25:14.899Z,20.35
2022-11-29T11:26:14.915Z,20.35
2022-11-29T11:27:14.948Z,20.35
2022-11-29T11:28:14.928Z,20.35
2022-11-29T11:29:14.953Z,20.36
2022-11-29T11:30:15.056Z,20.35
2022-11-29T11:31:14.991Z,20.38
2022-11-29T11:32:15.016Z,20.39
2022-11-29T11:33:15.037Z,20.41
2022-11-29T11:34:15.016Z,20.42
2022-11-29T11:35:18.422Z,20.43
2022-11-29T11:36:15.042Z,20.42
2022-11-29T11:37:15.065Z,20.41
2022-11-29T11:38:15.072Z,20.41
2022-11-29T11:39:15.066Z,20.39
2022-11-29T11:40:15.238Z,20.39
2022-11-29T11:41:15.088Z,20.38
2022-11-29T11:42:15.101Z,20.38
2022-11-29T11:43:15.134Z,20.38
2022-11-29T11:44:19.980Z,20.36
2022-11-29T11:45:15.143Z,20.38
2022-11-29T11:46:17.959Z,20.36
2022-11-29T11:47:15.142Z,20.35
2022-11-29T11:48:15.181Z,20.35
2022-11-29T11:49:15.200Z,20.33
2022-11-29T11:50:15.181Z,20.33
2022-11-29T11:51:15.201Z,20.33
2022-11-29T11:52:15.205Z,20.32
2022-11-29T11:53:15.213Z,20.32
2022-11-29T11:54:15.226Z,20.32
2022-11-29T11:55:15.254Z,20.31
2022-11-29T11:56:15.276Z,20.31
2022-11-29T11:57:15.242Z,20.32
2022-11-29T11:58:15.246Z,20.32
2022-11-29T11:59:15.262Z,20.31
2022-11-29T12:00:15.298Z,20.29
2022-11-29T12:01:15.282Z,20.31
2022-11-29T12:02:15.341Z,20.31
2022-11-29T12:03:15.401Z,20.31
2022-11-29T12:04:15.318Z,20.31
2022-11-29T12:05:15.358Z,20.31
2022-11-29T12:06:15.342Z,20.31
2022-11-29T12:07:15.488Z,20.31
2022-11-29T12:08:15.406Z,20.31
2022-11-29T12:09:15.371Z,20.31
2022-11-29T12:10:15.429Z,20.31
2022-11-29T12:11:15.400Z,20.29
2022-11-29T12:12:15.407Z,20.29
2022-11-29T12:13:15.422Z,20.28
2022-11-29T12:14:15.438Z,20.28
2022-11-29T12:15:15.462Z,20.28
2022-11-29T12:16:15.519Z,20.26
2022-11-29T12:17:19.799Z,20.28
2022-11-29T12:18:15.475Z,20.28
2022-11-29T12:19:15.519Z,20.28
2022-11-29T12:20:15.554Z,20.26
2022-11-29T12:21:15.520Z,20.26
2022-11-29T12:22:15.531Z,20.24
2022-11-29T12:23:15.560Z,20.24
2022-11-29T12:24:15.551Z,20.26
2022-11-29T12:25:15.591Z,20.24
2022-11-29T12:26:28.567Z,20.23
2022-11-29T12:27:15.699Z,20.24
2022-11-29T12:28:20.028Z,20.21
2022-11-29T12:29:15.627Z,20.21
2022-11-29T12:30:15.642Z,20.21
2022-11-29T12:31:15.713Z,20.21
2022-11-29T12:32:15.658Z,20.21
2022-11-29T12:33:15.664Z,20.21
2022-11-29T12:34:19.638Z,20.20
2022-11-29T12:35:18.778Z,20.20
2022-11-29T12:36:15.697Z,20.20
2022-11-29T12:37:15.713Z,20.20
2022-11-29T12:38:15.711Z,20.18
2022-11-29T12:39:15.727Z,20.17
2022-11-29T12:40:15.752Z,20.18
2022-11-29T12:41:15.786Z,20.18
2022-11-29T12:42:15.771Z,20.17
2022-11-29T12:43:15.791Z,20.17
2022-11-29T12:44:15.796Z,20.16
2022-11-29T12:45:15.817Z,20.17
2022-11-29T12:46:15.921Z,20.16
2022-11-29T12:48:15.868Z,20.16
2022-11-29T12:49:15.868Z,20.14
2022-11-29T12:50:15.897Z,20.17
2022-11-29T12:51:15.924Z,20.16
2022-11-29T12:52:15.925Z,20.16
2022-11-29T12:53:15.942Z,20.14